Time;durP1;ratioP1;P1;durP2;ratioP2;P2;SDS_P1;SDS_P2;PMS_P1;PMS_P2;Temp;Humidity;BMP_temperature;BMP_pressure;BME280_temperature;BME280_humidity;BME280_pressure;Samples;Min_cycle;Max_cycle;Signal;HPM_P1;HPM_P2
2023/05/26 00:01:47;;;;;;;22.40;6.30;;;;;;;10.99;81.08;100978.76;107706;1271;22520;-76
2023/05/26 00:04:17;;;;;;;17.10;5.70;;;;;;;10.96;81.06;100978.08;107601;1271;22560;-76
2023/05/26 00:06:52;;;;;;;22.50;6.80;;;;;;;10.92;81.30;100975.52;107764;1272;24272;-75
2023/05/26 00:09:23;;;;;;;21.00;6.70;;;;;;;10.88;81.60;100978.25;110798;1266;22351;-76
2023/05/26 00:11:54;;;;;;;18.50;6.30;;;;;;;10.85;81.75;100972.33;110776;1269;22171;-76
2023/05/26 00:14:25;;;;;;;21.20;6.50;;;;;;;10.81;81.67;100974.39;110771;1266;22279;-76
2023/05/26 00:16:55;;;;;;;16.60;6.20;;;;;;;10.78;81.62;100973.89;108444;1263;22680;-75
2023/05/26 00:19:26;;;;;;;16.30;6.00;;;;;;;10.75;81.75;100976.95;107694;1267;22508;-75
2023/05/26 00:21:59;;;;;;;16.70;6.20;;;;;;;10.73;81.75;100973.98;107574;1272;25265;-75
2023/05/26 00:24:30;;;;;;;15.10;5.60;;;;;;;10.70;81.77;100976.45;107646;1272;23010;-77
2023/05/26 00:27:01;;;;;;;17.10;6.60;;;;;;;10.68;81.98;100975.57;107699;1256;22574;-75
2023/05/26 00:29:32;;;;;;;20.60;6.40;;;;;;;10.67;82.36;100981.07;107626;1269;22527;-75
2023/05/26 00:32:02;;;;;;;18.30;6.50;;;;;;;10.65;82.26;100982.42;107733;1269;22554;-76
2023/05/26 00:34:34;;;;;;;17.20;6.00;;;;;;;10.63;82.30;100981.86;107667;1272;22517;-76
2023/05/26 00:37:05;;;;;;;19.10;6.50;;;;;;;10.61;82.34;100981.14;110788;1272;22346;-76
2023/05/26 00:39:36;;;;;;;19.40;7.20;;;;;;;10.58;82.31;100983.24;110826;1266;22322;-77
2023/05/26 00:42:08;;;;;;;21.50;6.00;;;;;;;10.57;82.38;100985.84;110796;1271;22993;-76
2023/05/26 00:44:38;;;;;;;21.90;6.20;;;;;;;10.56;82.60;100986.38;110734;1269;22374;-75
2023/05/26 00:47:09;;;;;;;19.80;6.10;;;;;;;10.54;82.58;100985.71;108697;1269;22498;-76
2023/05/26 00:49:40;;;;;;;19.40;7.00;;;;;;;10.54;82.55;100988.69;107651;1264;25281;-76
2023/05/26 00:52:12;;;;;;;17.90;7.50;;;;;;;10.52;82.70;100990.67;107555;1266;24380;-76
2023/05/26 00:54:44;;;;;;;19.70;6.80;;;;;;;10.53;83.65;100987.95;107647;1264;22561;-75
2023/05/26 01:00:39;;;;;;;19.30;7.80;;;;;;;10.53;85.06;100981.21;107746;1266;22789;-75
2023/05/26 01:03:13;;;;;;;20.60;8.30;;;;;;;10.53;85.48;100986.18;107715;1266;22789;-74
2023/05/26 01:05:44;;;;;;;17.70;7.70;;;;;;;10.52;85.21;100986.30;109859;1266;22568;-75
2023/05/26 01:08:15;;;;;;;22.50;6.80;;;;;;;10.52;84.67;100984.46;108006;1265;23345;-75
2023/05/26 01:10:45;;;;;;;20.60;7.90;;;;;;;10.51;84.81;100982.17;108706;1269;22517;-75
2023/05/26 01:13:21;;;;;;;21.70;7.50;;;;;;;10.51;84.88;100978.66;108573;1266;22514;-75
2023/05/26 01:15:56;;;;;;;18.30;7.20;;;;;;;10.51;84.70;100970.89;107649;1272;22681;-75
2023/05/26 01:18:36;;;;;;;18.60;8.10;;;;;;;10.50;84.92;100973.61;107704;1269;22528;-75
2023/05/26 01:21:10;;;;;;;19.10;8.10;;;;;;;10.49;85.08;100970.23;107622;1272;22587;-75
2023/05/26 01:23:51;;;;;;;17.30;7.00;;;;;;;10.48;85.27;100973.20;107687;1266;22527;-76
2023/05/26 01:26:38;;;;;;;20.60;7.90;;;;;;;10.49;85.66;100971.96;107692;1251;24267;-76
2023/05/26 01:29:12;;;;;;;18.50;7.40;;;;;;;10.53;86.78;100967.96;110736;1272;22203;-75
2023/05/26 01:31:43;;;;;;;18.50;7.60;;;;;;;10.55;87.08;100967.88;110762;1264;22192;-76
2023/05/26 01:34:13;;;;;;;20.90;7.70;;;;;;;10.57;86.96;100964.73;110783;1269;22731;-75
2023/05/26 01:36:44;;;;;;;20.30;8.30;;;;;;;10.58;87.10;100966.58;110764;1269;22869;-76
2023/05/26 01:39:15;;;;;;;19.60;7.50;;;;;;;10.58;87.13;100961.71;110802;1264;22836;-76
2023/05/26 01:41:51;;;;;;;23.60;8.60;;;;;;;10.60;87.26;100962.84;110756;1272;23473;-76
2023/05/26 01:44:28;;;;;;;21.10;7.40;;;;;;;10.63;87.33;100959.27;110793;1256;22200;-76
2023/05/26 01:47:00;;;;;;;18.00;7.60;;;;;;;10.67;87.19;100962.14;110708;1272;22246;-76
2023/05/26 01:49:32;;;;;;;20.80;8.50;;;;;;;10.72;87.30;100959.79;110759;1265;22349;-76
2023/05/26 01:52:07;;;;;;;18.70;8.20;;;;;;;10.77;87.34;100961.81;110761;1272;22194;-75
2023/05/26 01:54:44;;;;;;;20.80;7.20;;;;;;;10.82;87.40;100965.17;110753;1271;22210;-75
2023/05/26 01:57:16;;;;;;;21.70;7.40;;;;;;;10.87;87.49;100961.40;110819;1266;22209;-75
2023/05/26 01:59:52;;;;;;;22.40;7.90;;;;;;;10.90;87.56;100962.50;110794;1271;22419;-75
2023/05/26 02:02:22;;;;;;;28.00;9.50;;;;;;;10.92;87.93;100965.77;110760;1271;22632;-76
2023/05/26 02:04:53;;;;;;;26.10;9.40;;;;;;;10.95;87.97;100968.14;110836;1271;22203;-76
2023/05/26 02:07:26;;;;;;;23.30;8.70;;;;;;;10.99;88.09;100969.48;110778;1267;23041;-76
2023/05/26 02:09:57;;;;;;;22.10;9.10;;;;;;;11.03;88.09;100974.41;110711;1272;22466;-76
2023/05/26 02:12:27;;;;;;;19.50;8.10;;;;;;;11.05;88.05;100977.04;110778;1266;23019;-76
2023/05/26 02:14:58;;;;;;;23.10;7.70;;;;;;;11.08;87.99;100976.02;110789;1264;22219;-76
2023/05/26 02:17:29;;;;;;;24.80;8.50;;;;;;;11.08;87.82;100977.92;110804;1266;22598;-75
2023/05/26 02:20:00;;;;;;;21.70;8.30;;;;;;;11.12;88.07;100976.86;110768;1269;22218;-75
2023/05/26 02:22:31;;;;;;;22.30;8.80;;;;;;;11.16;88.28;100979.30;110781;1264;22404;-76
2023/05/26 02:25:02;;;;;;;16.70;6.70;;;;;;;11.20;88.55;100980.75;110784;1272;22984;-76
2023/05/26 02:27:33;;;;;;;20.30;7.50;;;;;;;11.24;88.38;100986.58;110760;1265;22186;-76
2023/05/26 02:30:04;;;;;;;19.00;7.00;;;;;;;11.28;88.64;100990.89;110765;1265;22217;-76
2023/05/26 02:32:36;;;;;;;22.00;8.70;;;;;;;11.31;88.70;100984.77;110731;1269;22853;-74
2023/05/26 02:35:07;;;;;;;19.10;8.10;;;;;;;11.34;88.79;100991.26;110732;1272;22340;-74
2023/05/26 02:37:38;;;;;;;20.90;7.30;;;;;;;11.37;89.05;100991.38;110775;1265;22521;-74
2023/05/26 02:40:11;;;;;;;19.10;8.00;;;;;;;11.38;89.06;100996.73;110791;1272;22362;-74
2023/05/26 02:42:41;;;;;;;19.60;7.80;;;;;;;11.41;89.00;100994.71;110767;1266;22175;-74
2023/05/26 02:45:13;;;;;;;23.40;8.90;;;;;;;11.45;88.99;100999.73;110797;1266;22215;-74
2023/05/26 02:47:43;;;;;;;18.30;7.30;;;;;;;11.48;88.94;101000.98;110721;1272;22630;-74
2023/05/26 02:50:14;;;;;;;18.70;7.00;;;;;;;11.50;88.90;100998.77;110724;1266;22204;-74
2023/05/26 02:52:45;;;;;;;19.80;8.10;;;;;;;11.53;88.80;100999.69;110745;1265;22374;-74
2023/05/26 02:55:15;;;;;;;19.50;7.60;;;;;;;11.56;88.90;100997.55;110723;1269;22196;-76
2023/05/26 02:57:46;;;;;;;26.70;7.80;;;;;;;11.60;88.74;100998.83;108386;1268;23327;-76
2023/05/26 03:00:19;;;;;;;19.40;8.30;;;;;;;11.62;88.91;100996.70;107616;1269;22520;-78
2023/05/26 03:02:50;;;;;;;19.70;7.70;;;;;;;11.65;88.86;100990.61;109075;1266;23261;-77
2023/05/26 03:05:20;;;;;;;20.00;7.70;;;;;;;11.67;89.17;100989.17;107590;1266;22528;-76
2023/05/26 03:07:51;;;;;;;21.40;7.70;;;;;;;11.69;89.26;100991.67;107594;1266;22615;-76
2023/05/26 03:10:22;;;;;;;21.80;6.80;;;;;;;11.70;89.22;100991.28;107699;1264;25214;-76
2023/05/26 03:12:52;;;;;;;21.40;7.60;;;;;;;11.69;89.46;100991.53;107775;1272;25318;-76
2023/05/26 03:15:25;;;;;;;23.60;8.20;;;;;;;11.69;89.51;100997.66;107519;1266;22531;-76
2023/05/26 03:17:56;;;;;;;18.50;7.10;;;;;;;11.67;89.44;100996.29;107492;1262;22534;-76
2023/05/26 03:20:27;;;;;;;22.60;7.40;;;;;;;11.67;89.53;100996.02;107696;1270;22543;-76
2023/05/26 03:22:57;;;;;;;21.80;7.50;;;;;;;11.68;89.47;100998.31;107715;1266;22764;-75
2023/05/26 03:25:28;;;;;;;23.50;8.70;;;;;;;11.69;89.46;101000.11;107614;1267;25268;-76
2023/05/26 03:27:59;;;;;;;19.60;7.80;;;;;;;11.71;89.51;101002.09;107693;1272;22547;-76
2023/05/26 03:30:30;;;;;;;20.30;7.60;;;;;;;11.71;89.59;101004.89;107666;1265;22534;-76
2023/05/26 03:33:01;;;;;;;20.50;7.60;;;;;;;11.70;89.49;101007.45;107676;1268;23798;-77
2023/05/26 03:35:32;;;;;;;25.80;7.20;;;;;;;11.70;89.61;101003.81;107682;1269;24176;-77
2023/05/26 03:38:03;;;;;;;22.90;8.70;;;;;;;11.71;89.87;101001.80;107667;1255;22552;-76
2023/05/26 03:40:35;;;;;;;19.80;8.60;;;;;;;11.71;89.93;101002.70;107644;1266;25372;-77
2023/05/26 03:43:06;;;;;;;21.50;7.80;;;;;;;11.73;90.07;101008.31;107667;1271;24218;-77
2023/05/26 03:45:37;;;;;;;20.10;7.90;;;;;;;11.75;90.04;101012.06;107785;1266;22485;-79
2023/05/26 03:48:12;;;;;;;21.10;7.30;;;;;;;11.78;90.28;101016.00;107834;1266;22545;-77
2023/05/26 03:50:45;;;;;;;20.70;7.90;;;;;;;11.80;90.35;101013.21;107648;1265;22548;-78
2023/05/26 03:53:16;;;;;;;26.10;8.30;;;;;;;11.82;90.51;101011.72;107509;1268;25258;-78
2023/05/26 03:55:46;;;;;;;21.30;8.80;;;;;;;11.85;90.54;101017.42;107521;1271;25281;-76
2023/05/26 03:58:17;;;;;;;23.60;9.40;;;;;;;11.88;90.86;101019.29;107385;1271;24362;-76
2023/05/26 04:00:48;;;;;;;24.70;9.00;;;;;;;11.91;91.06;101018.66;107673;1271;24267;-76
2023/05/26 04:03:21;;;;;;;18.60;8.50;;;;;;;11.95;90.98;101015.14;107713;1266;25211;-76
2023/05/26 04:05:52;;;;;;;23.40;10.60;;;;;;;12.00;91.09;101014.91;110152;1266;22514;-75
2023/05/26 04:08:23;;;;;;;25.90;9.70;;;;;;;12.04;91.45;101015.11;107639;1269;22522;-80
2023/05/26 04:10:54;;;;;;;23.80;8.50;;;;;;;12.09;91.56;101013.76;107611;1271;23326;-79
2023/05/26 04:13:25;;;;;;;23.10;7.80;;;;;;;12.13;91.47;101015.46;107563;1265;22505;-78
2023/05/26 04:15:59;;;;;;;22.90;8.80;;;;;;;12.18;91.66;101020.77;107569;1269;22615;-77
2023/05/26 04:18:29;;;;;;;19.30;7.70;;;;;;;12.21;91.66;101025.58;107626;1254;22517;-77
2023/05/26 04:21:00;;;;;;;15.00;6.80;;;;;;;12.25;91.77;101027.96;107726;1266;24190;-77
2023/05/26 04:23:31;;;;;;;22.40;7.80;;;;;;;12.28;91.99;101031.09;107639;1269;24362;-78
2023/05/26 04:26:03;;;;;;;22.40;7.20;;;;;;;12.31;92.00;101033.38;107687;1269;22819;-78
2023/05/26 04:28:39;;;;;;;26.10;7.00;;;;;;;12.32;91.85;101032.04;107657;1256;23729;-77
2023/05/26 04:31:10;;;;;;;23.90;8.60;;;;;;;12.34;91.94;101034.02;107609;1272;25461;-77
2023/05/26 04:33:41;;;;;;;22.00;8.40;;;;;;;12.37;91.93;101044.69;107752;1265;22548;-78
2023/05/26 04:36:13;;;;;;;22.60;7.90;;;;;;;12.41;91.99;101045.70;107761;1264;23299;-78
2023/05/26 04:38:47;;;;;;;20.90;8.10;;;;;;;12.43;92.19;101043.57;107835;1265;22520;-77
2023/05/26 04:41:18;;;;;;;21.20;8.80;;;;;;;12.45;92.26;101046.83;108004;1250;24229;-79
2023/05/26 04:43:49;;;;;;;20.30;7.20;;;;;;;12.47;92.08;101045.30;108202;1266;24215;-77
2023/05/26 04:46:20;;;;;;;20.40;6.30;;;;;;;12.48;91.59;101041.04;108661;1266;22818;-79
2023/05/26 04:48:52;;;;;;;20.40;6.80;;;;;;;12.48;91.44;101043.52;108147;1271;22545;-77
2023/05/26 04:51:23;;;;;;;17.30;5.40;;;;;;;12.48;91.13;101048.52;107630;1261;24355;-77
2023/05/26 04:53:54;;;;;;;17.00;5.10;;;;;;;12.52;91.13;101051.80;107600;1269;22520;-77
2023/05/26 04:56:26;;;;;;;20.40;6.30;;;;;;;12.57;91.36;101050.43;107655;1266;22526;-77
2023/05/26 04:58:57;;;;;;;18.70;5.80;;;;;;;12.63;91.41;101049.43;107658;1266;23148;-76
2023/05/26 05:01:28;;;;;;;21.50;6.30;;;;;;;12.69;91.35;101052.80;107651;1266;22553;-77
2023/05/26 05:04:00;;;;;;;20.40;6.30;;;;;;;12.76;91.35;101054.14;107670;1272;26621;-74
2023/05/26 05:06:30;;;;;;;22.50;6.20;;;;;;;12.82;90.62;101045.20;107671;1271;22647;-74
2023/05/26 05:09:02;;;;;;;16.00;6.00;;;;;;;12.87;90.46;101043.23;107498;1268;22519;-75
2023/05/26 05:11:33;;;;;;;23.50;5.80;;;;;;;12.93;90.44;101042.50;107547;1266;22701;-75
2023/05/26 05:14:04;;;;;;;22.70;5.70;;;;;;;12.97;89.76;101045.70;107708;1265;22770;-75
2023/05/26 05:16:35;;;;;;;21.50;5.20;;;;;;;13.02;89.86;101048.45;107750;1265;22556;-77
2023/05/26 05:19:07;;;;;;;19.00;5.40;;;;;;;13.06;89.25;101045.61;107918;1271;22926;-80
2023/05/26 05:21:39;;;;;;;21.70;6.00;;;;;;;13.10;88.98;101042.30;107723;1271;22532;-75
2023/05/26 05:24:10;;;;;;;25.50;5.60;;;;;;;13.15;88.74;101054.48;107690;1266;22524;-77
2023/05/26 05:26:43;;;;;;;21.30;5.90;;;;;;;13.21;89.23;101057.60;107612;1266;22531;-77
2023/05/26 05:29:14;;;;;;;23.60;5.30;;;;;;;13.30;89.12;101058.83;107589;1269;22812;-75
2023/05/26 05:31:45;;;;;;;19.50;5.50;;;;;;;13.37;88.65;101059.98;107634;1266;23437;-75
2023/05/26 05:34:15;;;;;;;25.30;5.20;;;;;;;13.43;88.16;101061.69;107631;1272;22491;-76
2023/05/26 05:36:47;;;;;;;20.20;5.50;;;;;;;13.49;87.82;101063.08;107624;1266;22636;-74
2023/05/26 05:39:20;;;;;;;21.20;5.30;;;;;;;13.54;87.62;101063.74;107608;1272;22522;-76
2023/05/26 05:41:54;;;;;;;18.90;4.50;;;;;;;13.60;87.39;101066.37;107474;1266;26537;-75
2023/05/26 05:44:26;;;;;;;25.10;5.30;;;;;;;13.65;87.17;101073.47;107653;1271;25195;-75
2023/05/26 05:46:57;;;;;;;20.40;5.70;;;;;;;13.72;87.10;101073.54;107673;1265;22519;-76
2023/05/26 05:49:31;;;;;;;24.60;5.10;;;;;;;13.79;86.73;101071.95;107703;1265;25262;-73
2023/05/26 05:52:01;;;;;;;17.60;4.90;;;;;;;13.88;86.84;101075.22;107678;1268;22526;-73
2023/05/26 05:54:32;;;;;;;19.50;5.40;;;;;;;13.93;85.83;101076.70;107674;1267;22525;-74
2023/05/26 05:57:03;;;;;;;16.00;3.90;;;;;;;13.98;86.01;101078.27;107740;1271;22565;-75
2023/05/26 05:59:34;;;;;;;22.10;4.70;;;;;;;14.04;85.65;101081.39;107600;1271;26058;-76
2023/05/26 06:02:08;;;;;;;18.70;3.90;;;;;;;14.07;85.20;101084.36;107647;1272;22513;-75
2023/05/26 06:04:39;;;;;;;17.60;4.00;;;;;;;14.12;85.20;101087.52;107443;1266;22550;-75
2023/05/26 06:07:09;;;;;;;16.90;4.10;;;;;;;14.17;84.45;101092.46;107548;1261;26200;-76
2023/05/26 06:09:44;;;;;;;19.80;3.80;;;;;;;14.22;84.81;101089.33;107697;1266;22529;-75
2023/05/26 06:12:18;;;;;;;23.80;4.10;;;;;;;14.26;84.14;101095.02;107651;1253;24229;-76
2023/05/26 06:14:51;;;;;;;17.50;3.50;;;;;;;14.32;84.41;101097.41;107777;1269;22564;-75
2023/05/26 06:17:22;;;;;;;18.80;3.30;;;;;;;14.39;83.05;101101.30;107663;1266;23280;-75
2023/05/26 06:19:52;;;;;;;20.20;3.70;;;;;;;14.44;83.26;101104.15;107667;1266;22541;-74
2023/05/26 06:22:23;;;;;;;16.20;3.50;;;;;;;14.53;82.80;101107.20;107483;1266;22513;-74
2023/05/26 06:24:54;;;;;;;19.00;3.60;;;;;;;14.62;83.19;101096.52;107463;1272;22515;-74
2023/05/26 06:27:25;;;;;;;17.80;3.30;;;;;;;14.74;82.08;101098.49;107573;1269;22636;-74
2023/05/26 06:29:55;;;;;;;15.50;3.40;;;;;;;14.80;81.42;101098.75;107575;1266;24193;-75
2023/05/26 06:32:26;;;;;;;16.50;3.00;;;;;;;14.87;81.67;101104.94;107600;1272;24190;-76
2023/05/26 06:34:57;;;;;;;16.20;3.30;;;;;;;14.94;81.89;101101.89;107688;1266;24238;-76
2023/05/26 06:37:28;;;;;;;20.70;3.90;;;;;;;15.01;81.63;101103.52;107586;1257;22643;-75
2023/05/26 06:39:58;;;;;;;19.80;3.90;;;;;;;15.02;81.13;101100.92;107533;1262;24190;-75
2023/05/26 06:42:29;;;;;;;15.30;3.50;;;;;;;15.03;81.14;101102.35;107608;1269;22519;-75
2023/05/26 06:45:00;;;;;;;22.70;3.70;;;;;;;15.08;80.97;101100.61;107561;1269;27541;-75
2023/05/26 06:47:31;;;;;;;22.00;4.90;;;;;;;15.13;79.43;101105.85;107534;1269;22533;-75
2023/05/26 06:50:02;;;;;;;18.50;2.60;;;;;;;15.14;79.91;101100.95;107562;1269;22511;-75
2023/05/26 06:52:32;;;;;;;20.50;3.40;;;;;;;15.17;78.04;101101.95;107637;1270;22606;-75
2023/05/26 06:55:06;;;;;;;24.30;3.40;;;;;;;15.17;78.40;101096.95;107561;1269;24949;-75
2023/05/26 06:57:37;;;;;;;16.30;3.10;;;;;;;15.20;78.92;101097.89;107480;1266;22544;-75
2023/05/26 07:00:10;;;;;;;14.60;2.60;;;;;;;15.22;78.64;101100.13;107490;1272;25988;-75
2023/05/26 07:02:41;;;;;;;14.70;3.20;;;;;;;15.22;78.00;101105.56;110760;1268;22281;-76
2023/05/26 07:05:12;;;;;;;21.70;3.50;;;;;;;15.19;76.85;101110.11;110735;1269;22217;-75
2023/05/26 07:07:43;;;;;;;18.80;3.80;;;;;;;15.15;77.53;101110.31;110761;1265;22226;-76
2023/05/26 07:10:13;;;;;;;18.90;2.90;;;;;;;15.18;77.40;101112.20;110747;1266;22352;-75
2023/05/26 07:12:44;;;;;;;18.90;3.10;;;;;;;15.20;76.72;101118.13;110706;1265;22380;-75
2023/05/26 07:15:18;;;;;;;20.00;2.60;;;;;;;15.22;75.49;101120.59;110722;1266;22270;-76
2023/05/26 07:17:48;;;;;;;17.20;2.70;;;;;;;15.19;73.98;101128.48;110761;1266;22177;-75
2023/05/26 07:20:19;;;;;;;20.50;2.40;;;;;;;15.18;74.27;101129.18;110743;1266;22227;-75
2023/05/26 07:22:50;;;;;;;15.60;2.40;;;;;;;15.20;73.18;101127.72;110729;1272;22145;-75
2023/05/26 07:25:21;;;;;;;16.40;2.00;;;;;;;15.24;72.88;101125.17;110724;1266;22209;-76
2023/05/26 07:27:52;;;;;;;18.20;2.10;;;;;;;15.29;72.40;101124.52;110703;1272;22200;-76
2023/05/26 07:30:23;;;;;;;19.50;2.60;;;;;;;15.31;70.89;101132.45;110725;1272;22148;-76
2023/05/26 07:32:54;;;;;;;16.30;2.60;;;;;;;15.30;71.25;101132.67;110723;1269;22211;-76
2023/05/26 07:35:25;;;;;;;22.00;2.70;;;;;;;15.33;71.69;101129.76;110723;1272;22191;-76
2023/05/26 07:37:56;;;;;;;14.90;3.90;;;;;;;15.37;71.40;101131.05;110706;1268;22237;-76
2023/05/26 07:40:29;;;;;;;15.50;2.40;;;;;;;15.44;71.03;101128.84;110714;1272;23241;-76
2023/05/26 07:42:59;;;;;;;20.90;2.50;;;;;;;15.54;71.14;101135.23;110740;1272;23992;-76
2023/05/26 07:45:30;;;;;;;25.70;3.20;;;;;;;15.60;69.56;101135.11;110720;1263;22386;-76
2023/05/26 07:48:01;;;;;;;17.40;2.20;;;;;;;15.64;69.96;101134.44;110717;1269;22285;-76
2023/05/26 07:50:32;;;;;;;13.10;2.10;;;;;;;15.67;68.52;101137.39;110722;1266;22434;-76
2023/05/26 07:53:03;;;;;;;18.40;3.00;;;;;;;15.68;68.19;101137.05;110719;1269;22930;-76
2023/05/26 07:55:34;;;;;;;27.00;3.00;;;;;;;15.70;68.21;101136.21;110756;1266;22967;-76
2023/05/26 07:58:05;;;;;;;21.80;3.10;;;;;;;15.76;68.98;101134.09;110782;1268;22822;-75
2023/05/26 08:00:36;;;;;;;16.60;2.30;;;;;;;15.85;67.53;101137.77;110767;1263;22420;-76
2023/05/26 08:03:06;;;;;;;17.90;2.30;;;;;;;15.89;66.54;101142.06;110761;1268;22972;-76
2023/05/26 08:05:37;;;;;;;15.70;1.90;;;;;;;15.91;67.29;101136.55;110731;1267;22374;-76
2023/05/26 08:08:08;;;;;;;19.90;2.60;;;;;;;15.99;66.54;101140.85;110771;1268;22171;-76
2023/05/26 08:10:39;;;;;;;14.30;2.50;;;;;;;16.05;65.83;101143.58;110740;1267;22604;-76
2023/05/26 08:13:10;;;;;;;13.00;2.50;;;;;;;16.07;64.80;101142.67;110736;1272;22185;-75
2023/05/26 08:15:41;;;;;;;15.70;2.00;;;;;;;16.04;63.64;101145.81;110717;1266;22183;-76
2023/05/26 08:18:12;;;;;;;16.70;2.80;;;;;;;16.06;64.55;101150.29;110715;1267;22144;-76
2023/05/26 08:20:43;;;;;;;16.10;2.20;;;;;;;16.08;64.33;101149.66;110765;1268;22165;-76
2023/05/26 08:23:15;;;;;;;14.30;2.00;;;;;;;16.10;63.84;101154.50;110771;1266;22881;-76
2023/05/26 08:25:46;;;;;;;16.20;2.90;;;;;;;16.12;63.92;101149.44;110773;1266;22322;-76
2023/05/26 08:28:17;;;;;;;15.20;2.60;;;;;;;16.16;64.34;101151.02;110816;1271;22422;-75
2023/05/26 08:30:48;;;;;;;16.90;2.30;;;;;;;16.18;63.50;101151.86;110756;1271;22335;-76
2023/05/26 08:33:19;;;;;;;13.80;2.00;;;;;;;16.17;63.54;101145.80;110741;1271;22154;-76
2023/05/26 08:35:49;;;;;;;21.00;2.30;;;;;;;16.20;64.32;101144.66;110731;1269;22215;-76
2023/05/26 08:38:21;;;;;;;14.60;2.00;;;;;;;16.30;64.21;101149.89;110730;1266;22351;-76
2023/05/26 08:40:57;;;;;;;11.30;1.80;;;;;;;16.36;63.04;101146.87;109656;1269;25258;-75
2023/05/26 08:43:34;;;;;;;20.10;1.90;;;;;;;16.41;62.65;101147.64;107669;1265;22638;-75
2023/05/26 08:46:06;;;;;;;15.50;2.00;;;;;;;16.43;62.67;101146.68;110767;1268;22161;-76
2023/05/26 08:48:39;;;;;;;14.20;2.00;;;;;;;16.46;62.25;101144.88;110695;1269;22314;-76
2023/05/26 08:51:13;;;;;;;9.90;2.00;;;;;;;16.55;63.12;101142.67;110726;1271;22223;-76
2023/05/26 08:53:45;;;;;;;14.40;1.90;;;;;;;16.63;62.97;101142.28;110720;1267;23432;-76
2023/05/26 08:56:16;;;;;;;17.60;2.10;;;;;;;16.72;62.28;101144.98;110743;1265;22636;-76
2023/05/26 08:58:48;;;;;;;19.00;2.60;;;;;;;16.80;62.70;101136.79;110710;1264;22204;-76
2023/05/26 09:01:19;;;;;;;13.50;2.00;;;;;;;16.89;62.14;101139.94;108115;1272;24409;-76
2023/05/26 09:03:50;;;;;;;13.80;2.20;;;;;;;17.00;61.81;101144.38;107567;1271;23672;-76
2023/05/26 09:06:23;;;;;;;13.60;2.40;;;;;;;16.97;60.75;101142.20;107527;1272;25377;-76
2023/05/26 09:08:54;;;;;;;21.40;2.40;;;;;;;16.89;60.40;101140.13;107478;1268;22559;-76
2023/05/26 09:11:27;;;;;;;25.50;2.50;;;;;;;16.86;60.41;101134.52;107526;1269;27876;-76
2023/05/26 09:13:58;;;;;;;18.10;2.60;;;;;;;16.91;60.21;101140.05;110720;1269;22642;-76
2023/05/26 09:16:29;;;;;;;12.70;1.70;;;;;;;16.91;59.91;101136.31;110734;1266;23564;-76
2023/05/26 09:19:01;;;;;;;14.60;2.00;;;;;;;16.98;60.93;101125.70;110722;1272;22661;-76
2023/05/26 09:21:33;;;;;;;19.60;2.40;;;;;;;17.11;60.48;101130.91;110565;1271;22175;-76
2023/05/26 09:24:04;;;;;;;16.30;1.60;;;;;;;17.24;60.93;101126.89;110719;1272;22278;-76
2023/05/26 09:26:38;;;;;;;13.90;2.20;;;;;;;17.31;59.15;101130.23;110740;1266;23602;-76
2023/05/26 09:29:08;;;;;;;21.10;1.90;;;;;;;17.24;58.24;101125.30;110679;1269;22149;-76
2023/05/26 09:31:43;;;;;;;17.30;2.10;;;;;;;17.26;59.41;101124.89;110723;1265;22274;-76
2023/05/26 09:34:17;;;;;;;20.40;2.20;;;;;;;17.36;59.41;101131.94;110742;1266;22190;-76
2023/05/26 09:36:47;;;;;;;24.00;2.60;;;;;;;17.48;58.69;101136.84;110744;1269;22371;-76
2023/05/26 09:39:18;;;;;;;17.00;2.50;;;;;;;17.44;57.57;101135.16;110742;1267;22170;-76
2023/05/26 09:41:49;;;;;;;21.90;2.50;;;;;;;17.42;58.11;101132.99;110740;1272;23044;-76
2023/05/26 09:44:20;;;;;;;14.00;1.90;;;;;;;17.43;58.80;101124.52;110744;1269;22197;-77
2023/05/26 09:46:54;;;;;;;20.80;2.40;;;;;;;17.52;59.61;101122.39;110692;1269;22693;-76
2023/05/26 09:49:25;;;;;;;21.40;2.40;;;;;;;17.60;58.01;101132.39;110709;1265;22374;-76
2023/05/26 09:51:56;;;;;;;16.70;1.80;;;;;;;17.54;57.62;101130.02;110730;1272;22904;-76
2023/05/26 09:54:27;;;;;;;22.00;2.20;;;;;;;17.48;57.48;101125.49;110739;1266;22241;-76
2023/05/26 09:57:04;;;;;;;16.60;2.00;;;;;;;17.45;58.12;101124.73;110755;1268;23210;-76
2023/05/26 09:59:38;;;;;;;19.50;2.50;;;;;;;17.45;58.30;101118.69;110725;1266;22300;-76
2023/05/26 10:02:20;;;;;;;13.00;1.50;;;;;;;17.52;57.80;101122.14;110704;1272;22185;-76
2023/05/26 10:04:53;;;;;;;15.70;1.90;;;;;;;17.70;58.13;101123.30;110513;1269;22353;-76
2023/05/26 10:07:26;;;;;;;14.70;2.20;;;;;;;17.86;57.51;101122.09;110757;1269;22151;-76
2023/05/26 10:10:00;;;;;;;17.30;2.20;;;;;;;18.00;56.86;101127.20;110742;1268;22593;-76
2023/05/26 10:12:32;;;;;;;17.60;2.50;;;;;;;18.08;56.50;101131.60;110734;1269;22378;-76
2023/05/26 10:15:04;;;;;;;17.60;1.70;;;;;;;18.15;56.02;101122.88;110716;1269;22239;-76
2023/05/26 10:17:36;;;;;;;18.50;1.70;;;;;;;18.22;55.93;101126.89;110729;1269;23126;-76
2023/05/26 10:20:09;;;;;;;14.40;2.60;;;;;;;18.31;56.00;101126.80;110725;1269;22338;-76
2023/05/26 10:22:46;;;;;;;10.70;1.20;;;;;;;18.35;54.75;101128.77;110743;1265;22909;-77
2023/05/26 10:25:24;;;;;;;11.80;1.90;;;;;;;18.27;54.34;101124.95;110704;1271;23004;-76
2023/05/26 10:28:05;;;;;;;10.10;1.60;;;;;;;18.18;53.42;101122.01;110680;1267;22315;-76
2023/05/26 10:30:37;;;;;;;15.00;1.70;;;;;;;18.11;54.66;101121.69;110747;1272;22168;-76
2023/05/26 10:33:12;;;;;;;12.60;2.20;;;;;;;18.13;54.75;101120.86;110693;1269;22828;-76
2023/05/26 10:35:55;;;;;;;16.40;2.20;;;;;;;18.18;53.23;101122.37;110724;1272;22926;-76
2023/05/26 10:38:31;;;;;;;11.20;1.50;;;;;;;18.18;53.81;101119.95;110705;1269;22789;-76
2023/05/26 10:41:02;;;;;;;12.20;1.20;;;;;;;18.20;51.66;101116.30;110696;1272;22169;-77
2023/05/26 10:43:34;;;;;;;14.50;1.50;;;;;;;18.24;51.27;101118.99;110726;1269;22137;-76
2023/05/26 10:46:06;;;;;;;16.30;2.00;;;;;;;18.28;50.57;101120.23;110624;1272;186607;-76
2023/05/26 10:48:39;;;;;;;9.10;1.20;;;;;;;18.32;50.31;101115.41;110722;1269;22856;-76
2023/05/26 10:51:25;;;;;;;10.50;1.30;;;;;;;18.40;50.19;101115.57;110695;1272;22238;-76
2023/05/26 10:53:59;;;;;;;7.40;1.00;;;;;;;18.48;48.63;101115.19;107547;1272;22686;-76
2023/05/26 10:56:42;;;;;;;8.90;1.10;;;;;;;18.53;46.01;101115.70;107580;1272;22522;-76
2023/05/26 10:59:25;;;;;;;9.10;0.90;;;;;;;18.52;45.52;101116.22;107607;1269;22546;-76
2023/05/26 11:01:56;;;;;;;5.50;1.20;;;;;;;18.56;45.10;101111.59;110681;1268;22180;-76
2023/05/26 11:04:42;;;;;;;8.50;1.20;;;;;;;18.62;43.68;101120.14;110715;1265;22525;-76
2023/05/26 11:07:21;;;;;;;9.90;1.10;;;;;;;18.64;43.43;101118.29;110732;1272;22871;-77
2023/05/26 11:10:02;;;;;;;14.70;1.40;;;;;;;18.65;43.71;101113.04;110685;1269;22375;-76
2023/05/26 11:12:37;;;;;;;6.70;1.50;;;;;;;18.71;41.76;101112.98;110709;1269;22559;-77
2023/05/26 11:15:29;;;;;;;9.00;0.90;;;;;;;18.79;43.70;101102.29;110706;1266;22173;-77
2023/05/26 11:18:03;;;;;;;12.50;1.60;;;;;;;18.92;43.22;101109.11;110679;1272;22143;-77
2023/05/26 11:20:35;;;;;;;10.60;1.40;;;;;;;19.04;43.16;101103.02;110729;1266;22323;-77
2023/05/26 11:23:06;;;;;;;10.80;1.30;;;;;;;19.17;43.74;101104.55;110729;1266;22944;-77
2023/05/26 11:25:47;;;;;;;10.40;1.10;;;;;;;19.33;42.66;101101.73;110718;1266;23022;-77
2023/05/26 11:28:20;;;;;;;8.20;1.20;;;;;;;19.44;41.92;101098.98;110744;1266;22405;-76
2023/05/26 11:30:51;;;;;;;10.60;1.20;;;;;;;19.43;42.07;101099.81;110708;1272;22196;-77
2023/05/26 11:33:24;;;;;;;12.60;1.40;;;;;;;19.43;41.51;101102.13;110771;1269;22141;-77
2023/05/26 11:35:55;;;;;;;13.30;1.70;;;;;;;19.35;42.57;101098.65;110603;1262;22204;-77